sensor_id;sensor_type;location;lat;lon;timestamp;temperature;humidity
4584;DHT22;2304;47.606;12.186;2022-08-19T00:03:43;22.30;67.80
4584;DHT22;2304;47.606;12.186;2022-08-19T00:08:45;22.30;67.70
4584;DHT22;2304;47.606;12.186;2022-08-19T00:13:47;22.20;67.80
4584;DHT22;2304;47.606;12.186;2022-08-19T00:18:51;22.20;67.70
4584;DHT22;2304;47.606;12.186;2022-08-19T00:23:54;22.20;67.70
4584;DHT22;2304;47.606;12.186;2022-08-19T00:28:58;22.20;68.30
4584;DHT22;2304;47.606;12.186;2022-08-19T00:34:02;22.20;68.40
4584;DHT22;2304;47.606;12.186;2022-08-19T00:39:04;22.20;68.40
4584;DHT22;2304;47.606;12.186;2022-08-19T00:44:08;22.20;68.40
4584;DHT22;2304;47.606;12.186;2022-08-19T00:49:16;22.20;68.80
4584;DHT22;2304;47.606;12.186;2022-08-19T00:54:20;22.20;68.60
4584;DHT22;2304;47.606;12.186;2022-08-19T00:59:22;22.30;68.50
4584;DHT22;2304;47.606;12.186;2022-08-19T01:04:26;22.30;68.40
4584;DHT22;2304;47.606;12.186;2022-08-19T01:09:28;22.30;68.30
4584;DHT22;2304;47.606;12.186;2022-08-19T01:14:31;22.20;68.70
4584;DHT22;2304;47.606;12.186;2022-08-19T01:19:37;22.20;68.60
4584;DHT22;2304;47.606;12.186;2022-08-19T01:24:41;22.20;68.80
4584;DHT22;2304;47.606;12.186;2022-08-19T01:29:43;22.20;68.20
4584;DHT22;2304;47.606;12.186;2022-08-19T01:34:46;22.30;68.40
4584;DHT22;2304;47.606;12.186;2022-08-19T01:39:49;22.30;68.50
4584;DHT22;2304;47.606;12.186;2022-08-19T01:44:51;22.30;68.40
4584;DHT22;2304;47.606;12.186;2022-08-19T01:49:53;22.30;68.20
4584;DHT22;2304;47.606;12.186;2022-08-19T01:54:56;22.20;68.90
4584;DHT22;2304;47.606;12.186;2022-08-19T01:59:59;22.10;68.70
4584;DHT22;2304;47.606;12.186;2022-08-19T02:05:03;21.90;69.40
4584;DHT22;2304;47.606;12.186;2022-08-19T02:10:10;21.70;70.20
4584;DHT22;2304;47.606;12.186;2022-08-19T02:15:14;21.50;70.50
4584;DHT22;2304;47.606;12.186;2022-08-19T02:20:16;21.50;70.60
4584;DHT22;2304;47.606;12.186;2022-08-19T02:25:19;21.40;70.90
4584;DHT22;2304;47.606;12.186;2022-08-19T02:30:21;21.40;71.00
4584;DHT22;2304;47.606;12.186;2022-08-19T02:35:25;21.30;71.00
4584;DHT22;2304;47.606;12.186;2022-08-19T02:40:28;21.20;71.50
4584;DHT22;2304;47.606;12.186;2022-08-19T02:45:34;21.20;71.60
4584;DHT22;2304;47.606;12.186;2022-08-19T02:50:37;21.30;71.70
4584;DHT22;2304;47.606;12.186;2022-08-19T02:55:44;21.30;71.10
4584;DHT22;2304;47.606;12.186;2022-08-19T03:00:49;21.30;70.60
4584;DHT22;2304;47.606;12.186;2022-08-19T03:05:51;21.30;70.60
4584;DHT22;2304;47.606;12.186;2022-08-19T03:10:54;21.30;71.00
4584;DHT22;2304;47.606;12.186;2022-08-19T03:15:56;21.20;71.40
4584;DHT22;2304;47.606;12.186;2022-08-19T03:20:58;21.00;71.50
4584;DHT22;2304;47.606;12.186;2022-08-19T03:26:04;21.30;71.00
4584;DHT22;2304;47.606;12.186;2022-08-19T03:31:10;21.20;70.70
4584;DHT22;2304;47.606;12.186;2022-08-19T03:36:14;21.20;71.50
4584;DHT22;2304;47.606;12.186;2022-08-19T03:41:19;21.20;71.40
4584;DHT22;2304;47.606;12.186;2022-08-19T03:46:23;21.30;71.80
4584;DHT22;2304;47.606;12.186;2022-08-19T03:51:27;21.40;71.10
4584;DHT22;2304;47.606;12.186;2022-08-19T03:56:34;21.50;71.00
4584;DHT22;2304;47.606;12.186;2022-08-19T04:01:36;21.60;70.20
4584;DHT22;2304;47.606;12.186;2022-08-19T04:06:38;21.70;70.00
4584;DHT22;2304;47.606;12.186;2022-08-19T04:11:46;21.70;69.90
4584;DHT22;2304;47.606;12.186;2022-08-19T04:16:48;21.80;69.70
4584;DHT22;2304;47.606;12.186;2022-08-19T04:21:52;21.80;70.00
4584;DHT22;2304;47.606;12.186;2022-08-19T04:26:56;21.80;69.80
4584;DHT22;2304;47.606;12.186;2022-08-19T04:32:01;21.80;69.90
4584;DHT22;2304;47.606;12.186;2022-08-19T04:37:05;21.80;70.00
4584;DHT22;2304;47.606;12.186;2022-08-19T04:42:14;21.80;70.20
4584;DHT22;2304;47.606;12.186;2022-08-19T04:47:33;21.80;70.00
4584;DHT22;2304;47.606;12.186;2022-08-19T04:52:35;21.70;70.50
4584;DHT22;2304;47.606;12.186;2022-08-19T04:57:38;21.70;70.90
4584;DHT22;2304;47.606;12.186;2022-08-19T05:02:40;21.60;70.90
4584;DHT22;2304;47.606;12.186;2022-08-19T05:07:42;21.50;71.40
4584;DHT22;2304;47.606;12.186;2022-08-19T05:12:46;21.50;71.70
4584;DHT22;2304;47.606;12.186;2022-08-19T05:17:48;21.40;72.40
4584;DHT22;2304;47.606;12.186;2022-08-19T05:23:03;21.30;72.70
4584;DHT22;2304;47.606;12.186;2022-08-19T05:28:07;21.40;72.90
4584;DHT22;2304;47.606;12.186;2022-08-19T05:33:08;21.40;72.50
4584;DHT22;2304;47.606;12.186;2022-08-19T05:38:11;21.50;72.30
4584;DHT22;2304;47.606;12.186;2022-08-19T05:43:15;21.50;72.50
4584;DHT22;2304;47.606;12.186;2022-08-19T05:48:17;21.60;72.50
4584;DHT22;2304;47.606;12.186;2022-08-19T05:53:20;21.60;72.70
4584;DHT22;2304;47.606;12.186;2022-08-19T05:58:24;21.70;73.10
4584;DHT22;2304;47.606;12.186;2022-08-19T06:03:26;21.80;73.10
4584;DHT22;2304;47.606;12.186;2022-08-19T06:08:29;21.80;72.90
4584;DHT22;2304;47.606;12.186;2022-08-19T06:13:32;21.90;73.20
4584;DHT22;2304;47.606;12.186;2022-08-19T06:18:34;21.90;73.10
4584;DHT22;2304;47.606;12.186;2022-08-19T06:23:36;22.00;73.90
4584;DHT22;2304;47.606;12.186;2022-08-19T06:28:39;22.00;73.10
4584;DHT22;2304;47.606;12.186;2022-08-19T06:33:48;22.10;73.50
4584;DHT22;2304;47.606;12.186;2022-08-19T06:38:49;22.10;73.70
4584;DHT22;2304;47.606;12.186;2022-08-19T06:43:53;22.10;73.70
4584;DHT22;2304;47.606;12.186;2022-08-19T06:48:55;22.00;74.10
4584;DHT22;2304;47.606;12.186;2022-08-19T06:53:57;21.90;74.90
4584;DHT22;2304;47.606;12.186;2022-08-19T06:59:01;21.90;74.40
4584;DHT22;2304;47.606;12.186;2022-08-19T07:04:05;21.90;74.20
4584;DHT22;2304;47.606;12.186;2022-08-19T07:09:09;21.90;75.40
4584;DHT22;2304;47.606;12.186;2022-08-19T07:14:13;21.80;74.50
4584;DHT22;2304;47.606;12.186;2022-08-19T07:19:19;21.80;74.30
4584;DHT22;2304;47.606;12.186;2022-08-19T07:24:23;21.80;74.00
4584;DHT22;2304;47.606;12.186;2022-08-19T07:29:28;21.80;74.00
4584;DHT22;2304;47.606;12.186;2022-08-19T07:34:32;21.90;73.70
4584;DHT22;2304;47.606;12.186;2022-08-19T07:39:35;21.90;73.30
4584;DHT22;2304;47.606;12.186;2022-08-19T07:44:39;22.00;73.10
4584;DHT22;2304;47.606;12.186;2022-08-19T07:49:42;22.10;73.20
4584;DHT22;2304;47.606;12.186;2022-08-19T07:54:44;22.00;71.90
4584;DHT22;2304;47.606;12.186;2022-08-19T07:59:47;22.10;72.40
4584;DHT22;2304;47.606;12.186;2022-08-19T08:04:49;22.20;72.20
4584;DHT22;2304;47.606;12.186;2022-08-19T08:10:08;22.30;72.10
4584;DHT22;2304;47.606;12.186;2022-08-19T08:15:14;22.30;72.40
4584;DHT22;2304;47.606;12.186;2022-08-19T08:20:19;22.30;72.90
4584;DHT22;2304;47.606;12.186;2022-08-19T08:25:23;22.20;73.80
4584;DHT22;2304;47.606;12.186;2022-08-19T08:30:28;22.10;74.90
4584;DHT22;2304;47.606;12.186;2022-08-19T08:35:30;22.30;74.20
4584;DHT22;2304;47.606;12.186;2022-08-19T08:40:39;22.40;73.60
4584;DHT22;2304;47.606;12.186;2022-08-19T08:45:48;22.50;72.40
4584;DHT22;2304;47.606;12.186;2022-08-19T08:50:55;22.80;71.60
4584;DHT22;2304;47.606;12.186;2022-08-19T08:55:58;23.00;70.80
4584;DHT22;2304;47.606;12.186;2022-08-19T09:01:04;23.10;70.00
4584;DHT22;2304;47.606;12.186;2022-08-19T09:06:10;23.30;70.70
4584;DHT22;2304;47.606;12.186;2022-08-19T09:11:17;23.70;71.80
4584;DHT22;2304;47.606;12.186;2022-08-19T09:16:22;23.70;67.00
4584;DHT22;2304;47.606;12.186;2022-08-19T09:21:28;23.80;69.00
4584;DHT22;2304;47.606;12.186;2022-08-19T09:26:30;24.30;69.60
4584;DHT22;2304;47.606;12.186;2022-08-19T09:31:34;24.60;68.30
4584;DHT22;2304;47.606;12.186;2022-08-19T09:36:36;25.10;67.40
4584;DHT22;2304;47.606;12.186;2022-08-19T09:41:39;25.30;65.70
4584;DHT22;2304;47.606;12.186;2022-08-19T09:46:42;25.20;64.70
4584;DHT22;2304;47.606;12.186;2022-08-19T09:51:45;25.80;65.00
4584;DHT22;2304;47.606;12.186;2022-08-19T09:56:48;26.30;60.90
4584;DHT22;2304;47.606;12.186;2022-08-19T10:01:51;26.70;60.80
4584;DHT22;2304;47.606;12.186;2022-08-19T10:06:55;26.70;61.10
4584;DHT22;2304;47.606;12.186;2022-08-19T10:11:57;27.00;59.80
4584;DHT22;2304;47.606;12.186;2022-08-19T10:17:03;27.20;57.70
4584;DHT22;2304;47.606;12.186;2022-08-19T10:22:05;27.50;56.10
4584;DHT22;2304;47.606;12.186;2022-08-19T10:27:07;27.70;56.70
4584;DHT22;2304;47.606;12.186;2022-08-19T10:32:11;27.80;55.30
4584;DHT22;2304;47.606;12.186;2022-08-19T10:37:13;28.00;55.50
4584;DHT22;2304;47.606;12.186;2022-08-19T10:42:15;28.20;56.00
4584;DHT22;2304;47.606;12.186;2022-08-19T10:47:20;28.40;53.70
4584;DHT22;2304;47.606;12.186;2022-08-19T10:52:23;28.60;54.50
4584;DHT22;2304;47.606;12.186;2022-08-19T10:57:37;28.80;53.30
4584;DHT22;2304;47.606;12.186;2022-08-19T11:02:41;28.90;52.30
4584;DHT22;2304;47.606;12.186;2022-08-19T11:07:44;28.70;52.40
4584;DHT22;2304;47.606;12.186;2022-08-19T11:12:46;28.90;52.90
4584;DHT22;2304;47.606;12.186;2022-08-19T11:17:51;29.00;52.90
4584;DHT22;2304;47.606;12.186;2022-08-19T11:22:54;28.90;51.60
4584;DHT22;2304;47.606;12.186;2022-08-19T11:27:56;28.60;51.80
4584;DHT22;2304;47.606;12.186;2022-08-19T11:33:00;28.70;52.70
4584;DHT22;2304;47.606;12.186;2022-08-19T11:38:02;29.10;52.00
4584;DHT22;2304;47.606;12.186;2022-08-19T11:43:04;29.20;51.30
4584;DHT22;2304;47.606;12.186;2022-08-19T11:48:07;29.30;50.70
4584;DHT22;2304;47.606;12.186;2022-08-19T11:53:09;29.40;50.10
4584;DHT22;2304;47.606;12.186;2022-08-19T11:58:11;29.30;49.20
4584;DHT22;2304;47.606;12.186;2022-08-19T12:03:14;29.60;49.50
4584;DHT22;2304;47.606;12.186;2022-08-19T12:08:17;29.50;48.40
4584;DHT22;2304;47.606;12.186;2022-08-19T12:13:18;29.60;48.80
4584;DHT22;2304;47.606;12.186;2022-08-19T12:18:22;29.70;49.90
4584;DHT22;2304;47.606;12.186;2022-08-19T12:23:25;29.60;49.60
4584;DHT22;2304;47.606;12.186;2022-08-19T12:28:26;29.40;48.80
4584;DHT22;2304;47.606;12.186;2022-08-19T12:33:30;29.40;49.90
4584;DHT22;2304;47.606;12.186;2022-08-19T12:38:33;29.40;48.00
4584;DHT22;2304;47.606;12.186;2022-08-19T12:43:36;29.40;48.00
4584;DHT22;2304;47.606;12.186;2022-08-19T12:48:39;29.20;49.00
4584;DHT22;2304;47.606;12.186;2022-08-19T12:53:43;28.90;49.40
4584;DHT22;2304;47.606;12.186;2022-08-19T12:58:44;28.80;50.10
4584;DHT22;2304;47.606;12.186;2022-08-19T13:03:48;28.50;50.40
4584;DHT22;2304;47.606;12.186;2022-08-19T13:08:51;28.30;50.70
4584;DHT22;2304;47.606;12.186;2022-08-19T13:13:53;28.10;51.20
4584;DHT22;2304;47.606;12.186;2022-08-19T13:18:57;27.70;51.70
4584;DHT22;2304;47.606;12.186;2022-08-19T13:23:59;27.40;52.30
4584;DHT22;2304;47.606;12.186;2022-08-19T13:29:01;27.20;52.90
4584;DHT22;2304;47.606;12.186;2022-08-19T13:34:28;27.10;53.50
4584;DHT22;2304;47.606;12.186;2022-08-19T13:39:32;26.90;53.40
4584;DHT22;2304;47.606;12.186;2022-08-19T13:44:34;26.70;54.10
4584;DHT22;2304;47.606;12.186;2022-08-19T13:49:37;26.60;54.30
4584;DHT22;2304;47.606;12.186;2022-08-19T13:54:39;26.40;55.00
4584;DHT22;2304;47.606;12.186;2022-08-19T13:59:41;26.30;54.90
4584;DHT22;2304;47.606;12.186;2022-08-19T14:04:44;26.10;55.00
4584;DHT22;2304;47.606;12.186;2022-08-19T14:09:46;25.90;54.60
4584;DHT22;2304;47.606;12.186;2022-08-19T14:14:47;25.90;55.30
4584;DHT22;2304;47.606;12.186;2022-08-19T14:19:56;25.70;55.00
4584;DHT22;2304;47.606;12.186;2022-08-19T14:24:58;25.60;55.60
4584;DHT22;2304;47.606;12.186;2022-08-19T14:29:59;25.50;56.00
4584;DHT22;2304;47.606;12.186;2022-08-19T14:35:05;25.40;56.30
4584;DHT22;2304;47.606;12.186;2022-08-19T14:40:09;25.30;56.80
4584;DHT22;2304;47.606;12.186;2022-08-19T14:45:12;25.20;57.00
4584;DHT22;2304;47.606;12.186;2022-08-19T14:50:15;25.10;57.70
4584;DHT22;2304;47.606;12.186;2022-08-19T14:55:18;24.40;57.40
4584;DHT22;2304;47.606;12.186;2022-08-19T15:00:20;23.30;55.20
4584;DHT22;2304;47.606;12.186;2022-08-19T15:05:24;22.60;57.10
4584;DHT22;2304;47.606;12.186;2022-08-19T15:10:27;22.40;62.20
4584;DHT22;2304;47.606;12.186;2022-08-19T15:15:29;21.70;63.50
4584;DHT22;2304;47.606;12.186;2022-08-19T15:20:32;21.30;65.70
4584;DHT22;2304;47.606;12.186;2022-08-19T15:25:34;21.20;68.00
4584;DHT22;2304;47.606;12.186;2022-08-19T15:30:37;21.00;70.80
4584;DHT22;2304;47.606;12.186;2022-08-19T15:35:40;20.80;70.40
4584;DHT22;2304;47.606;12.186;2022-08-19T15:40:42;20.70;73.10
4584;DHT22;2304;47.606;12.186;2022-08-19T15:45:45;20.70;74.70
4584;DHT22;2304;47.606;12.186;2022-08-19T15:50:48;20.80;73.70
4584;DHT22;2304;47.606;12.186;2022-08-19T15:55:50;20.70;73.10
4584;DHT22;2304;47.606;12.186;2022-08-19T16:00:52;20.60;73.50
4584;DHT22;2304;47.606;12.186;2022-08-19T16:06:12;20.60;74.00
4584;DHT22;2304;47.606;12.186;2022-08-19T16:11:29;20.70;74.90
4584;DHT22;2304;47.606;12.186;2022-08-19T16:16:33;20.80;75.40
4584;DHT22;2304;47.606;12.186;2022-08-19T16:21:36;20.80;74.40
4584;DHT22;2304;47.606;12.186;2022-08-19T16:26:40;20.80;76.10
4584;DHT22;2304;47.606;12.186;2022-08-19T16:31:44;20.70;75.90
4584;DHT22;2304;47.606;12.186;2022-08-19T16:36:48;20.70;74.90
4584;DHT22;2304;47.606;12.186;2022-08-19T16:41:50;20.70;74.70
4584;DHT22;2304;47.606;12.186;2022-08-19T16:46:52;20.70;75.40
4584;DHT22;2304;47.606;12.186;2022-08-19T16:51:55;20.70;75.60
4584;DHT22;2304;47.606;12.186;2022-08-19T16:56:57;20.60;76.20
4584;DHT22;2304;47.606;12.186;2022-08-19T17:01:59;20.50;77.40
4584;DHT22;2304;47.606;12.186;2022-08-19T17:07:03;20.50;77.30
4584;DHT22;2304;47.606;12.186;2022-08-19T17:12:05;20.40;77.40
4584;DHT22;2304;47.606;12.186;2022-08-19T17:17:07;20.30;77.90
4584;DHT22;2304;47.606;12.186;2022-08-19T17:22:13;20.10;79.10
4584;DHT22;2304;47.606;12.186;2022-08-19T17:27:15;20.00;79.90
4584;DHT22;2304;47.606;12.186;2022-08-19T17:32:19;20.10;81.60
4584;DHT22;2304;47.606;12.186;2022-08-19T17:37:22;19.90;82.50
4584;DHT22;2304;47.606;12.186;2022-08-19T17:42:24;20.00;81.90
4584;DHT22;2304;47.606;12.186;2022-08-19T17:47:26;20.00;80.60
4584;DHT22;2304;47.606;12.186;2022-08-19T17:52:29;19.90;81.40
4584;DHT22;2304;47.606;12.186;2022-08-19T17:57:31;19.80;82.90
4584;DHT22;2304;47.606;12.186;2022-08-19T18:02:33;19.80;83.70
4584;DHT22;2304;47.606;12.186;2022-08-19T18:07:37;19.70;82.90
4584;DHT22;2304;47.606;12.186;2022-08-19T18:12:38;19.60;84.10
4584;DHT22;2304;47.606;12.186;2022-08-19T18:17:40;19.50;85.70
4584;DHT22;2304;47.606;12.186;2022-08-19T18:22:46;19.60;85.80
4584;DHT22;2304;47.606;12.186;2022-08-19T18:27:49;19.50;85.70
4584;DHT22;2304;47.606;12.186;2022-08-19T18:32:52;19.50;85.10
4584;DHT22;2304;47.606;12.186;2022-08-19T18:37:57;19.60;85.70
4584;DHT22;2304;47.606;12.186;2022-08-19T18:43:00;19.60;84.00
4584;DHT22;2304;47.606;12.186;2022-08-19T18:48:19;19.70;83.60
4584;DHT22;2304;47.606;12.186;2022-08-19T18:53:41;19.70;84.30
4584;DHT22;2304;47.606;12.186;2022-08-19T18:58:43;19.50;85.90
4584;DHT22;2304;47.606;12.186;2022-08-19T19:03:48;19.40;86.50
4584;DHT22;2304;47.606;12.186;2022-08-19T19:08:52;19.40;86.80
4584;DHT22;2304;47.606;12.186;2022-08-19T19:13:54;19.40;87.10
4584;DHT22;2304;47.606;12.186;2022-08-19T19:18:56;19.50;86.90
4584;DHT22;2304;47.606;12.186;2022-08-19T19:24:00;19.40;86.20
4584;DHT22;2304;47.606;12.186;2022-08-19T19:29:02;19.40;86.20
4584;DHT22;2304;47.606;12.186;2022-08-19T19:34:04;19.60;85.30
4584;DHT22;2304;47.606;12.186;2022-08-19T19:39:07;19.60;85.00
4584;DHT22;2304;47.606;12.186;2022-08-19T19:44:10;19.60;84.50
4584;DHT22;2304;47.606;12.186;2022-08-19T19:49:12;19.60;84.30
4584;DHT22;2304;47.606;12.186;2022-08-19T19:54:16;19.60;84.50
4584;DHT22;2304;47.606;12.186;2022-08-19T19:59:20;19.50;84.20
4584;DHT22;2304;47.606;12.186;2022-08-19T20:04:22;19.50;83.90
4584;DHT22;2304;47.606;12.186;2022-08-19T20:09:25;19.40;84.50
4584;DHT22;2304;47.606;12.186;2022-08-19T20:14:29;19.40;85.10
4584;DHT22;2304;47.606;12.186;2022-08-19T20:19:32;19.40;86.00
4584;DHT22;2304;47.606;12.186;2022-08-19T20:24:37;19.20;87.30
4584;DHT22;2304;47.606;12.186;2022-08-19T20:29:41;19.10;88.50
4584;DHT22;2304;47.606;12.186;2022-08-19T20:34:43;19.10;88.50
4584;DHT22;2304;47.606;12.186;2022-08-19T20:39:49;19.00;88.70
4584;DHT22;2304;47.606;12.186;2022-08-19T20:44:51;18.90;90.20
4584;DHT22;2304;47.606;12.186;2022-08-19T20:49:53;18.90;90.80
4584;DHT22;2304;47.606;12.186;2022-08-19T20:54:56;18.80;91.30
4584;DHT22;2304;47.606;12.186;2022-08-19T20:59:59;18.80;91.20
4584;DHT22;2304;47.606;12.186;2022-08-19T21:05:03;18.80;91.80
4584;DHT22;2304;47.606;12.186;2022-08-19T21:10:08;18.80;92.20
4584;DHT22;2304;47.606;12.186;2022-08-19T21:15:11;18.70;92.30
4584;DHT22;2304;47.606;12.186;2022-08-19T21:20:13;18.80;93.00
4584;DHT22;2304;47.606;12.186;2022-08-19T21:25:17;18.80;91.70
4584;DHT22;2304;47.606;12.186;2022-08-19T21:30:18;18.70;92.50
4584;DHT22;2304;47.606;12.186;2022-08-19T21:35:21;18.80;92.40
4584;DHT22;2304;47.606;12.186;2022-08-19T21:40:25;19.00;91.60
4584;DHT22;2304;47.606;12.186;2022-08-19T21:45:27;19.00;88.90
4584;DHT22;2304;47.606;12.186;2022-08-19T21:50:29;18.80;89.70
4584;DHT22;2304;47.606;12.186;2022-08-19T21:55:33;18.80;91.20
4584;DHT22;2304;47.606;12.186;2022-08-19T22:00:35;18.90;91.00
4584;DHT22;2304;47.606;12.186;2022-08-19T22:05:37;18.90;89.80
4584;DHT22;2304;47.606;12.186;2022-08-19T22:10:40;18.80;90.30
4584;DHT22;2304;47.606;12.186;2022-08-19T22:15:43;18.70;90.70
4584;DHT22;2304;47.606;12.186;2022-08-19T22:20:45;18.70;91.20
4584;DHT22;2304;47.606;12.186;2022-08-19T22:25:48;18.70;91.70
4584;DHT22;2304;47.606;12.186;2022-08-19T22:30:50;18.60;91.60
4584;DHT22;2304;47.606;12.186;2022-08-19T22:35:52;18.50;91.90
4584;DHT22;2304;47.606;12.186;2022-08-19T22:40:55;18.60;92.10
4584;DHT22;2304;47.606;12.186;2022-08-19T22:45:58;18.50;91.80
4584;DHT22;2304;47.606;12.186;2022-08-19T22:51:00;18.60;92.00
4584;DHT22;2304;47.606;12.186;2022-08-19T22:56:21;18.50;92.40
4584;DHT22;2304;47.606;12.186;2022-08-19T23:01:23;18.40;94.20
4584;DHT22;2304;47.606;12.186;2022-08-19T23:06:25;18.40;93.00
4584;DHT22;2304;47.606;12.186;2022-08-19T23:11:29;18.50;92.80
4584;DHT22;2304;47.606;12.186;2022-08-19T23:16:34;18.50;93.30
4584;DHT22;2304;47.606;12.186;2022-08-19T23:21:36;18.60;93.30
4584;DHT22;2304;47.606;12.186;2022-08-19T23:26:39;18.40;93.40
4584;DHT22;2304;47.606;12.186;2022-08-19T23:32:02;18.50;93.10
4584;DHT22;2304;47.606;12.186;2022-08-19T23:37:06;18.40;93.20
4584;DHT22;2304;47.606;12.186;2022-08-19T23:42:11;18.40;92.90
4584;DHT22;2304;47.606;12.186;2022-08-19T23:47:13;18.40;92.90
4584;DHT22;2304;47.606;12.186;2022-08-19T23:52:14;18.40;93.10
4584;DHT22;2304;47.606;12.186;2022-08-19T23:57:18;18.50;93.00
